Time;durP1;ratioP1;P1;durP2;ratioP2;P2;SDS_P1;SDS_P2;PMS_P1;PMS_P2;Temp;Humidity;BMP_temperature;BMP_pressure;BME280_temperature;BME280_humidity;BME280_pressure;Samples;Min_cycle;Max_cycle;Signal;HPM_P1;HPM_P2
2023/05/16 00:02:46;;;;;;;6.40;5.90;;;;;;;15.65;61.27;97529.72;8479722;28;20285;-69
2023/05/16 00:06:49;;;;;;;6.83;6.20;;;;;;;15.67;61.20;97527.84;8479620;28;20230;-69
2023/05/16 00:10:52;;;;;;;6.80;6.20;;;;;;;15.65;61.28;97527.13;8479673;27;20219;-69
2023/05/16 00:14:56;;;;;;;6.63;6.13;;;;;;;15.65;61.17;97529.72;8483157;28;20231;-69
2023/05/16 00:18:59;;;;;;;6.70;6.10;;;;;;;15.68;60.88;97532.09;8486316;27;20219;-69
2023/05/16 00:23:02;;;;;;;7.20;6.70;;;;;;;15.70;61.09;97529.38;8486154;27;20233;-68
2023/05/16 00:27:05;;;;;;;7.10;6.57;;;;;;;15.57;61.64;97539.88;8486000;28;20230;-68
2023/05/16 00:31:10;;;;;;;7.60;7.00;;;;;;;15.50;61.83;97541.25;8485704;28;20223;-68
2023/05/16 00:35:12;;;;;;;7.50;6.80;;;;;;;15.47;61.38;97536.25;8485723;27;20234;-68
2023/05/16 00:39:15;;;;;;;9.20;6.77;;;;;;;15.46;61.14;97522.38;8485675;27;20279;-68
2023/05/16 00:43:18;;;;;;;7.53;7.03;;;;;;;15.52;61.21;97534.16;8476547;28;20271;-70
2023/05/16 00:47:22;;;;;;;7.80;7.03;;;;;;;15.42;61.20;97532.22;8485446;27;20226;-68
2023/05/16 00:51:28;;;;;;;9.27;7.83;;;;;;;15.35;60.91;97523.13;8485239;28;20400;-69
2023/05/16 00:55:31;;;;;;;8.00;7.30;;;;;;;15.41;61.34;97537.53;8484979;27;20227;-69
2023/05/16 00:59:34;;;;;;;7.70;7.10;;;;;;;15.38;61.38;97533.38;8484947;27;20227;-68
2023/05/16 01:03:39;;;;;;;7.57;7.07;;;;;;;15.31;61.24;97526.91;8484744;28;20448;-68
2023/05/16 01:07:42;;;;;;;7.67;7.07;;;;;;;15.32;61.74;97527.72;8484686;27;20423;-68
2023/05/16 01:11:52;;;;;;;8.30;7.60;;;;;;;15.20;61.54;97517.22;8484574;27;20245;-68
2023/05/16 01:16:04;;;;;;;8.13;7.37;;;;;;;15.22;61.39;97525.78;8484451;27;20570;-68
2023/05/16 01:20:14;;;;;;;8.50;7.80;;;;;;;15.18;60.97;97515.66;8484542;28;20230;-69
2023/05/16 01:24:24;;;;;;;8.20;7.53;;;;;;;15.23;61.20;97530.06;8483879;28;20473;-68
2023/05/16 01:28:28;;;;;;;8.30;7.60;;;;;;;15.17;61.74;97525.28;8476278;28;20235;-68
2023/05/16 01:32:31;;;;;;;8.80;8.00;;;;;;;14.99;61.68;97510.91;8483779;27;20234;-68
2023/05/16 01:36:41;;;;;;;9.03;8.23;;;;;;;15.09;61.07;97529.34;8483850;28;20280;-68
2023/05/16 01:40:48;;;;;;;10.13;7.80;;;;;;;15.07;60.77;97533.84;8483525;27;20258;-68
2023/05/16 01:44:56;;;;;;;9.03;8.17;;;;;;;15.11;60.83;97533.50;8483550;28;20231;-68
2023/05/16 01:49:05;;;;;;;8.77;8.10;;;;;;;15.09;60.71;97531.97;8483336;28;20219;-68
2023/05/16 01:53:15;;;;;;;9.07;8.37;;;;;;;15.07;61.05;97529.44;8482905;27;20229;-68
2023/05/16 01:57:18;;;;;;;8.60;8.00;;;;;;;14.96;61.33;97531.97;8474353;27;20223;-69
2023/05/16 02:01:25;;;;;;;8.80;8.03;;;;;;;15.01;61.26;97540.31;8482806;27;20228;-68
2023/05/16 02:05:27;;;;;;;8.93;8.23;;;;;;;15.00;61.07;97544.69;8482698;28;20294;-68
2023/05/16 02:09:31;;;;;;;8.83;8.17;;;;;;;15.04;61.25;97546.16;8482603;27;20246;-68
2023/05/16 02:13:34;;;;;;;8.73;7.93;;;;;;;15.07;61.08;97545.09;8482560;27;20230;-68
2023/05/16 02:17:38;;;;;;;8.80;8.07;;;;;;;15.09;61.11;97543.22;8482548;28;20249;-68
2023/05/16 02:21:40;;;;;;;9.40;8.70;;;;;;;15.15;61.52;97545.38;8482310;28;20519;-68
2023/05/16 02:25:43;;;;;;;9.47;8.60;;;;;;;15.06;61.76;97546.06;8481749;27;20215;-68
2023/05/16 02:29:46;;;;;;;8.43;7.83;;;;;;;15.09;61.23;97550.22;8481820;28;20241;-68
2023/05/16 02:33:50;;;;;;;9.00;8.13;;;;;;;14.99;61.82;97550.03;8481819;27;20233;-68
2023/05/16 02:37:54;;;;;;;9.13;8.43;;;;;;;15.03;61.88;97548.88;8481140;28;20260;-68
2023/05/16 02:41:57;;;;;;;8.67;7.93;;;;;;;15.05;61.54;97546.97;8481343;27;20230;-68
2023/05/16 02:46:00;;;;;;;9.03;8.33;;;;;;;14.98;61.68;97535.31;8481291;27;20231;-68
2023/05/16 02:50:05;;;;;;;9.37;8.47;;;;;;;14.91;61.27;97536.66;8481477;28;20263;-68
2023/05/16 02:54:08;;;;;;;9.13;8.43;;;;;;;14.99;61.35;97540.41;8481357;28;20280;-68
2023/05/16 02:58:11;;;;;;;8.87;8.23;;;;;;;14.92;61.60;97535.72;8480966;27;20238;-68
2023/05/16 03:02:17;;;;;;;11.50;9.03;;;;;;;14.40;61.45;97454.09;8481080;27;20506;-68
2023/05/16 03:06:22;;;;;;;10.20;9.30;;;;;;;14.85;61.65;97537.94;8480231;27;20518;-69
2023/05/16 03:10:24;;;;;;;8.90;8.20;;;;;;;14.84;61.74;97538.88;8480859;28;20534;-68
2023/05/16 03:14:27;;;;;;;9.57;8.67;;;;;;;14.90;61.61;97541.03;8480530;28;20567;-68
2023/05/16 03:18:30;;;;;;;9.73;8.00;;;;;;;14.88;61.38;97542.09;8480391;27;20230;-68
2023/05/16 03:22:34;;;;;;;9.30;8.43;;;;;;;14.64;61.55;97509.78;8480435;28;20237;-68
2023/05/16 03:26:37;;;;;;;8.83;8.13;;;;;;;14.75;61.86;97535.09;8480488;27;20230;-68
2023/05/16 03:30:40;;;;;;;9.00;8.20;;;;;;;14.80;61.38;97545.22;8480142;27;20221;-68
2023/05/16 03:34:43;;;;;;;9.13;8.20;;;;;;;14.72;62.12;97548.34;8480400;28;20519;-69
2023/05/16 03:38:47;;;;;;;8.97;8.17;;;;;;;14.74;62.15;97550.88;8480262;27;20423;-68
2023/05/16 03:42:50;;;;;;;8.67;7.90;;;;;;;14.84;61.96;97562.31;8479626;28;20234;-68
2023/05/16 03:46:54;;;;;;;9.13;8.33;;;;;;;14.86;61.43;97561.28;8480168;28;20230;-68
2023/05/16 03:50:57;;;;;;;9.63;8.83;;;;;;;14.79;62.13;97562.66;8491391;27;20229;-68
2023/05/16 03:55:02;;;;;;;9.57;8.80;;;;;;;14.71;62.47;97548.47;8491065;27;20235;-69
2023/05/16 03:59:07;;;;;;;10.60;8.80;;;;;;;14.84;62.27;97575.34;8491335;27;20296;-69
2023/05/16 04:03:10;;;;;;;8.93;8.23;;;;;;;14.85;62.54;97588.28;8491011;27;20233;-69
2023/05/16 04:07:13;;;;;;;10.03;9.13;;;;;;;14.88;61.98;97592.47;8491231;27;20257;-69
2023/05/16 04:11:17;;;;;;;10.13;9.23;;;;;;;14.85;62.62;97597.91;8491237;27;20254;-69
2023/05/16 04:15:20;;;;;;;9.17;8.47;;;;;;;14.85;62.64;97592.69;8490053;27;20249;-69
2023/05/16 04:19:23;;;;;;;9.43;8.63;;;;;;;15.03;62.64;97601.00;8490866;27;20230;-69
2023/05/16 04:23:26;;;;;;;9.60;8.87;;;;;;;14.99;62.67;97597.78;8491169;27;20241;-69
2023/05/16 04:27:30;;;;;;;9.17;8.30;;;;;;;15.03;62.37;97595.81;8490777;27;20244;-69
2023/05/16 04:31:33;;;;;;;9.07;8.27;;;;;;;15.01;62.86;97593.28;8490646;27;20232;-69
2023/05/16 04:35:36;;;;;;;10.20;9.30;;;;;;;15.03;62.63;97591.41;8490589;27;20402;-68
2023/05/16 04:39:39;;;;;;;9.50;8.70;;;;;;;15.05;62.32;97594.75;8490745;27;20223;-69
2023/05/16 04:43:44;;;;;;;9.37;8.63;;;;;;;15.05;62.44;97599.13;8490614;27;20396;-69
2023/05/16 04:47:51;;;;;;;9.60;8.80;;;;;;;15.01;62.53;97601.13;8490491;27;20230;-69
2023/05/16 04:51:53;;;;;;;9.37;8.60;;;;;;;15.03;62.16;97596.63;8490492;27;20246;-69
2023/05/16 04:55:56;;;;;;;9.37;8.57;;;;;;;14.97;62.66;97601.44;8490285;27;20230;-68
2023/05/16 05:00:00;;;;;;;9.63;8.83;;;;;;;15.04;62.13;97610.50;8487249;27;20548;-68
2023/05/16 05:04:04;;;;;;;10.33;9.17;;;;;;;15.07;61.95;97617.28;8484623;27;20227;-69
2023/05/16 05:08:06;;;;;;;9.47;8.67;;;;;;;15.04;62.33;97627.00;8484938;28;20272;-68
2023/05/16 05:12:10;;;;;;;9.70;8.93;;;;;;;14.97;62.40;97609.25;8484724;27;20222;-69
2023/05/16 05:16:14;;;;;;;8.83;8.13;;;;;;;15.28;62.51;97623.63;8484532;27;20310;-68
2023/05/16 05:20:18;;;;;;;9.70;8.80;;;;;;;15.08;62.92;97624.16;8483055;27;20226;-68
2023/05/16 05:24:22;;;;;;;9.60;8.83;;;;;;;15.09;62.93;97618.84;8474004;27;20648;-69
2023/05/16 05:28:25;;;;;;;8.97;8.27;;;;;;;15.16;63.01;97627.94;8484110;27;20233;-69
2023/05/16 05:32:29;;;;;;;10.00;9.00;;;;;;;15.05;62.63;97617.38;8483782;27;20237;-68
2023/05/16 05:36:32;;;;;;;9.93;9.03;;;;;;;15.12;63.09;97620.44;8483588;28;20541;-68
2023/05/16 05:40:35;;;;;;;8.90;8.10;;;;;;;15.28;62.94;97630.63;8483471;27;20241;-69
2023/05/16 05:44:38;;;;;;;8.87;8.17;;;;;;;15.35;63.24;97629.28;8483430;27;20239;-69
2023/05/16 05:48:42;;;;;;;10.37;8.67;;;;;;;15.46;62.92;97631.97;8483249;28;20230;-69
2023/05/16 05:52:45;;;;;;;8.83;8.03;;;;;;;15.54;62.44;97634.06;8483489;27;20247;-69
2023/05/16 05:56:48;;;;;;;9.47;8.67;;;;;;;15.64;62.22;97637.69;8483508;28;20235;-69
2023/05/16 06:00:51;;;;;;;8.80;8.00;;;;;;;15.60;62.61;97633.63;8483236;27;20519;-69
2023/05/16 06:04:55;;;;;;;9.13;8.27;;;;;;;15.87;62.14;97636.09;8482634;27;20237;-67
2023/05/16 06:08:58;;;;;;;9.20;8.50;;;;;;;16.29;60.96;97626.09;8482880;27;20229;-67
2023/05/16 06:13:01;;;;;;;9.33;8.27;;;;;;;16.16;61.70;97634.00;8481737;27;20424;-67
2023/05/16 06:17:03;;;;;;;10.20;9.40;;;;;;;16.30;61.47;97626.94;8482644;27;20450;-68
2023/05/16 06:21:08;;;;;;;8.60;8.00;;;;;;;16.16;60.54;97622.69;8482549;28;20234;-68
2023/05/16 06:25:10;;;;;;;10.30;9.50;;;;;;;16.37;61.25;97625.53;8482208;27;20232;-67
2023/05/16 06:29:13;;;;;;;10.07;9.37;;;;;;;16.55;59.54;97634.63;8482346;27;20403;-68
2023/05/16 06:33:18;;;;;;;9.33;8.53;;;;;;;16.79;59.82;97624.16;8482177;27;20230;-68
2023/05/16 06:37:22;;;;;;;9.33;8.47;;;;;;;17.08;59.28;97621.13;8473400;27;20227;-68
2023/05/16 06:41:26;;;;;;;9.17;8.47;;;;;;;17.37;58.16;97631.97;8481955;28;20424;-68
2023/05/16 06:45:29;;;;;;;9.10;8.30;;;;;;;17.35;58.85;97638.28;8481766;28;20234;-69
2023/05/16 06:49:32;;;;;;;9.60;8.80;;;;;;;17.26;58.89;97639.81;8481544;27;20280;-68
2023/05/16 06:53:37;;;;;;;7.40;6.47;;;;;;;18.35;58.66;97627.78;8481305;27;20233;-67
2023/05/16 06:57:40;;;;;;;7.73;6.97;;;;;;;18.71;55.02;97634.41;8481308;28;20293;-67
2023/05/16 07:01:43;;;;;;;7.70;7.10;;;;;;;18.68;54.39;97637.28;8481330;27;20527;-67
2023/05/16 07:05:46;;;;;;;8.23;7.63;;;;;;;19.16;53.41;97638.59;8480367;28;20238;-68
2023/05/16 07:09:50;;;;;;;6.60;6.10;;;;;;;19.40;52.88;97645.31;8481062;27;20237;-68
2023/05/16 07:13:53;;;;;;;9.67;8.87;;;;;;;19.31;51.40;97652.22;8480664;28;20239;-69
2023/05/16 07:17:56;;;;;;;9.13;8.43;;;;;;;18.99;52.57;97647.88;8480743;27;20223;-69
2023/05/16 07:21:59;;;;;;;10.20;9.40;;;;;;;18.46;54.36;97655.75;8480274;28;20232;-69
2023/05/16 07:26:03;;;;;;;9.23;8.53;;;;;;;18.52;54.02;97665.72;8480819;28;20507;-69
2023/05/16 07:30:08;;;;;;;9.20;8.37;;;;;;;18.81;54.08;97660.75;8480724;28;20231;-69
2023/05/16 07:34:12;;;;;;;8.67;7.97;;;;;;;18.57;55.03;97666.19;8480492;28;20238;-69
2023/05/16 07:38:15;;;;;;;10.07;9.13;;;;;;;18.65;55.12;97663.75;8480265;27;20242;-69
2023/05/16 07:42:19;;;;;;;10.30;9.40;;;;;;;18.44;54.78;97668.16;8471562;28;20237;-70
2023/05/16 07:46:25;;;;;;;9.57;8.67;;;;;;;18.37;54.93;97659.94;8480396;28;20233;-69
2023/05/16 07:50:28;;;;;;;9.47;8.67;;;;;;;18.68;54.35;97670.56;8479969;28;20222;-69
2023/05/16 07:54:31;;;;;;;10.03;9.10;;;;;;;18.33;55.18;97669.00;8479982;27;20223;-69
2023/05/16 07:58:35;;;;;;;9.50;8.70;;;;;;;18.76;53.85;97673.38;8480042;28;20242;-69
2023/05/16 08:02:38;;;;;;;10.13;9.17;;;;;;;18.71;54.51;97680.78;8480021;28;20246;-69
2023/05/16 08:06:41;;;;;;;9.63;8.73;;;;;;;19.00;52.96;97681.06;8479782;28;20272;-69
2023/05/16 08:10:44;;;;;;;10.10;9.30;;;;;;;18.72;53.16;97674.59;8480172;28;20224;-69
2023/05/16 08:14:48;;;;;;;10.00;9.10;;;;;;;18.65;52.77;97679.50;8479821;28;20279;-69
2023/05/16 08:18:51;;;;;;;10.30;9.40;;;;;;;18.23;52.58;97686.44;8479433;27;20519;-69
2023/05/16 08:22:55;;;;;;;11.00;10.00;;;;;;;17.96;53.16;97658.84;8479639;28;20246;-69
2023/05/16 08:26:57;;;;;;;10.83;9.83;;;;;;;17.97;53.89;97695.41;8479288;28;20223;-69
2023/05/16 08:31:02;;;;;;;10.83;9.87;;;;;;;17.82;53.98;97700.97;8479676;28;20234;-69
2023/05/16 08:35:05;;;;;;;10.57;9.67;;;;;;;17.86;54.42;97712.91;8481318;28;20499;-69
2023/05/16 08:39:10;;;;;;;11.53;10.53;;;;;;;17.58;56.22;97708.00;8484619;28;20237;-68
2023/05/16 08:43:13;;;;;;;12.27;11.23;;;;;;;17.51;56.61;97717.28;8485666;27;20465;-68
2023/05/16 08:47:20;;;;;;;12.27;11.13;;;;;;;16.86;57.72;97716.06;8485605;27;20325;-69
2023/05/16 08:51:25;;;;;;;13.50;12.20;;;;;;;16.88;58.18;97729.03;8477342;28;20258;-69
2023/05/16 08:55:28;;;;;;;12.93;11.83;;;;;;;16.98;56.66;97715.16;8485272;27;20661;-70
2023/05/16 08:59:31;;;;;;;12.47;11.37;;;;;;;16.91;56.85;97700.03;8485600;27;20287;-69
2023/05/16 09:03:37;;;;;;;12.23;11.13;;;;;;;16.67;57.10;97736.63;8485119;27;20357;-70
2023/05/16 09:07:40;;;;;;;13.60;12.40;;;;;;;16.93;56.98;97725.13;8484962;28;20233;-69
2023/05/16 09:11:43;;;;;;;13.03;11.83;;;;;;;16.71;57.41;97727.63;8484981;27;20222;-69
2023/05/16 09:15:46;;;;;;;12.47;11.50;;;;;;;17.13;56.22;97713.16;8484842;28;20420;-69
2023/05/16 09:19:53;;;;;;;13.20;12.13;;;;;;;16.80;57.42;97721.72;8484350;28;20228;-70
2023/05/16 09:23:56;;;;;;;13.73;12.43;;;;;;;16.90;56.77;97711.44;8484566;28;20230;-69
2023/05/16 09:28:00;;;;;;;12.20;11.07;;;;;;;16.90;57.14;97700.97;8484509;28;20238;-69
2023/05/16 09:32:10;;;;;;;11.57;10.50;;;;;;;16.91;56.53;97720.97;8483915;28;20451;-69
2023/05/16 09:36:15;;;;;;;11.03;10.03;;;;;;;17.14;56.39;97740.19;8484102;28;20241;-70
2023/05/16 09:40:20;;;;;;;11.97;10.83;;;;;;;16.72;56.55;97727.50;8483584;28;20230;-70
2023/05/16 09:44:23;;;;;;;10.40;9.60;;;;;;;16.91;55.83;97718.34;8483963;27;20226;-70
2023/05/16 09:48:27;;;;;;;11.47;10.43;;;;;;;15.95;57.17;97612.84;8483208;27;20244;-69
2023/05/16 09:52:31;;;;;;;10.63;9.70;;;;;;;17.07;55.49;97721.47;8483731;27;20242;-69
2023/05/16 09:56:48;;;;;;;10.33;9.20;;;;;;;17.20;55.09;97734.47;8483014;28;20231;-69
2023/05/16 10:00:51;;;;;;;10.53;9.60;;;;;;;17.27;54.98;97727.00;8482985;28;20232;-69
2023/05/16 10:04:54;;;;;;;9.83;8.97;;;;;;;17.01;55.67;97729.78;8482446;28;20234;-69
2023/05/16 10:08:59;;;;;;;8.30;7.50;;;;;;;17.50;53.92;97728.72;8482162;27;20597;-69
2023/05/16 10:13:06;;;;;;;9.20;8.40;;;;;;;17.49;54.06;97728.81;8482316;27;20230;-69
2023/05/16 10:17:12;;;;;;;8.13;7.23;;;;;;;17.33;54.49;97732.59;8482008;28;20236;-69
2023/05/16 10:21:17;;;;;;;7.60;6.97;;;;;;;17.72;54.11;97727.88;8481940;28;20544;-69
2023/05/16 10:25:26;;;;;;;8.17;7.47;;;;;;;17.36;53.37;97729.78;8473067;27;20266;-70
2023/05/16 10:29:30;;;;;;;7.33;6.73;;;;;;;17.51;53.08;97726.91;8481549;28;20436;-69
2023/05/16 10:33:45;;;;;;;7.67;6.97;;;;;;;17.88;52.63;97724.94;8481429;28;20227;-69
2023/05/16 10:37:49;;;;;;;7.63;6.90;;;;;;;17.63;52.72;97712.91;8481434;28;20234;-69
2023/05/16 10:41:59;;;;;;;7.47;6.77;;;;;;;18.10;51.25;97697.88;8480986;27;20467;-69
2023/05/16 10:46:08;;;;;;;6.70;6.17;;;;;;;18.05;51.62;97699.19;8481185;27;20235;-69
2023/05/16 10:50:11;;;;;;;7.00;6.33;;;;;;;18.78;50.17;97704.72;8480895;28;20331;-69
2023/05/16 10:54:17;;;;;;;6.10;5.50;;;;;;;19.26;48.36;97693.75;8480714;28;20227;-69
2023/05/16 10:58:25;;;;;;;6.07;5.33;;;;;;;19.13;49.17;97692.19;8471245;28;20541;-70
2023/05/16 11:02:31;;;;;;;5.60;5.20;;;;;;;19.70;48.00;97702.28;8480661;27;20356;-69
2023/05/16 11:06:44;;;;;;;6.00;5.50;;;;;;;19.39;47.93;97690.94;8480210;28;20231;-68
2023/05/16 11:10:47;;;;;;;5.70;4.97;;;;;;;18.94;49.36;97692.03;8480437;27;20572;-70
2023/05/16 11:14:54;;;;;;;5.83;5.33;;;;;;;18.81;48.79;97705.34;8480143;28;20223;-67
2023/05/16 11:19:05;;;;;;;5.30;4.90;;;;;;;18.38;47.56;97676.50;8480227;28;20265;-68
2023/05/16 11:23:25;;;;;;;6.33;5.80;;;;;;;18.32;48.39;97720.59;8479638;27;20222;-68
2023/05/16 11:27:30;;;;;;;6.50;6.00;;;;;;;18.03;48.87;97703.72;8479647;27;20230;-68
2023/05/16 11:32:26;;;;;;;6.40;5.83;;;;;;;18.66;48.59;97727.56;8479325;28;20279;-68
2023/05/16 11:36:31;;;;;;;7.37;6.67;;;;;;;18.20;48.56;97732.09;8471911;27;20258;-68
2023/05/16 11:40:34;;;;;;;6.63;5.30;;;;;;;18.43;48.13;97729.38;8479157;28;20259;-68
2023/05/16 13:00:35;;;;;;;4.40;4.03;;;;;;;19.99;41.95;97755.00;8434385;28;20581;-70
2023/05/16 13:04:40;;;;;;;4.33;4.03;;;;;;;19.50;42.60;97765.22;8450457;28;20227;-70
2023/05/16 13:08:43;;;;;;;4.03;3.73;;;;;;;19.84;42.38;97758.94;8451156;27;20554;-70
2023/05/16 13:12:46;;;;;;;3.97;3.73;;;;;;;19.20;42.64;97755.47;8450804;28;20427;-70
2023/05/16 13:16:50;;;;;;;5.53;3.80;;;;;;;18.97;44.44;97781.00;8450917;28;20235;-70
2023/05/16 13:20:53;;;;;;;4.00;3.70;;;;;;;19.42;43.65;97779.94;8450312;28;20322;-70
2023/05/16 13:24:56;;;;;;;3.80;3.40;;;;;;;20.87;41.58;97774.47;8450688;28;20235;-70
2023/05/16 13:29:00;;;;;;;3.40;3.10;;;;;;;20.98;41.19;97785.81;8450287;28;20532;-70
2023/05/16 13:33:05;;;;;;;3.63;3.40;;;;;;;20.56;42.12;97794.75;8450268;27;20245;-70
2023/05/16 13:37:08;;;;;;;5.93;3.47;;;;;;;19.89;41.51;97790.91;8450014;27;20529;-70
2023/05/16 13:41:11;;;;;;;3.43;3.20;;;;;;;19.81;42.98;97794.19;8449840;27;20223;-70
2023/05/16 13:45:13;;;;;;;2.90;2.70;;;;;;;19.65;42.69;97786.75;8449458;28;20305;-70
2023/05/16 13:49:18;;;;;;;3.37;2.90;;;;;;;18.92;44.42;97799.75;8449311;28;20254;-70
2023/05/16 13:53:20;;;;;;;2.70;2.50;;;;;;;18.59;44.79;97823.41;8475145;28;20376;-70
2023/05/16 13:57:23;;;;;;;3.47;2.33;;;;;;;19.03;43.86;97819.84;8482829;27;20267;-70
2023/05/16 14:01:26;;;;;;;3.73;2.37;;;;;;;19.19;42.54;97814.22;8483286;28;20360;-71
2023/05/16 14:05:31;;;;;;;2.30;2.20;;;;;;;19.14;42.67;97811.13;8482806;27;20340;-70
2023/05/16 14:09:37;;;;;;;2.43;2.20;;;;;;;19.42;42.17;97814.06;8482667;28;20236;-69
2023/05/16 14:13:40;;;;;;;3.00;2.20;;;;;;;18.97;42.81;97823.00;8482732;28;20297;-68
2023/05/16 14:17:43;;;;;;;2.43;2.00;;;;;;;18.78;42.97;97807.88;8482304;27;20298;-68
2023/05/16 14:21:48;;;;;;;3.90;3.60;;;;;;;18.89;43.00;97825.41;8482280;28;20288;-68
2023/05/16 14:25:51;;;;;;;2.23;2.03;;;;;;;18.79;43.69;97842.78;8482125;27;20223;-69
2023/05/16 14:29:54;;;;;;;2.20;1.53;;;;;;;18.43;44.03;97844.75;8481842;28;20219;-69
2023/05/16 14:33:57;;;;;;;1.80;1.70;;;;;;;18.36;44.75;97845.22;8480635;27;20231;-69
2023/05/16 14:38:01;;;;;;;2.43;1.60;;;;;;;18.74;43.77;97843.16;8481730;27;20426;-70
2023/05/16 14:42:05;;;;;;;1.97;1.50;;;;;;;18.84;43.80;97840.66;8481505;28;20230;-70
2023/05/16 14:46:10;;;;;;;1.43;1.33;;;;;;;19.17;43.91;97841.53;8481431;28;20235;-70
2023/05/16 14:50:16;;;;;;;1.60;1.50;;;;;;;18.54;44.14;97842.97;8481144;28;20454;-70
2023/05/16 14:54:23;;;;;;;1.80;1.70;;;;;;;18.32;43.33;97842.97;8472415;27;20517;-70
2023/05/16 14:58:28;;;;;;;1.63;1.53;;;;;;;17.59;42.72;97762.06;8478421;28;20235;-70
2023/05/16 15:02:31;;;;;;;1.53;1.53;;;;;;;18.00;43.23;97856.78;8480690;27;20423;-70
2023/05/16 15:06:34;;;;;;;1.50;1.40;;;;;;;18.26;43.53;97843.44;8480171;27;20238;-69
2023/05/16 15:10:38;;;;;;;1.57;1.43;;;;;;;18.16;44.06;97864.28;8480192;27;20276;-69
2023/05/16 15:14:41;;;;;;;1.40;1.30;;;;;;;17.81;44.77;97864.34;8480064;28;20229;-69
2023/05/16 15:18:44;;;;;;;1.63;1.40;;;;;;;17.22;44.65;97779.69;8479711;27;20530;-69
2023/05/16 15:22:47;;;;;;;3.20;1.60;;;;;;;17.90;44.58;97867.13;8479906;27;20230;-69
2023/05/16 15:26:51;;;;;;;4.30;1.60;;;;;;;18.01;44.24;97871.56;8479409;27;20223;-69
2023/05/16 15:30:54;;;;;;;1.70;1.60;;;;;;;17.73;45.00;97870.16;8479373;27;20223;-69
2023/05/16 15:34:57;;;;;;;2.73;1.33;;;;;;;17.86;44.95;97876.16;8479271;28;20333;-69
2023/05/16 15:39:00;;;;;;;2.63;1.60;;;;;;;17.64;45.57;97871.66;8479646;28;20407;-69
2023/05/16 15:43:04;;;;;;;2.53;1.50;;;;;;;17.80;45.40;97863.50;8479112;27;20417;-69
2023/05/16 15:47:07;;;;;;;2.40;1.80;;;;;;;17.73;45.02;97870.16;8479144;28;20230;-70
2023/05/16 15:51:11;;;;;;;1.70;1.60;;;;;;;16.83;45.25;97746.84;8478756;28;20225;-70
2023/05/16 15:55:15;;;;;;;2.10;1.60;;;;;;;17.02;46.37;97867.50;8478854;28;20231;-69
2023/05/16 15:59:20;;;;;;;2.17;1.70;;;;;;;17.22;45.51;97881.75;8470208;28;20359;-71
2023/05/16 16:03:22;;;;;;;2.30;1.77;;;;;;;17.08;45.33;97881.91;8479295;28;20238;-69
2023/05/16 16:07:25;;;;;;;2.00;1.80;;;;;;;17.00;45.81;97885.06;8479063;27;20234;-69
2023/05/16 16:11:28;;;;;;;2.87;1.73;;;;;;;17.01;45.59;97886.75;8479031;28;20230;-68
2023/05/16 16:15:34;;;;;;;2.90;1.70;;;;;;;16.92;45.63;97880.38;8477412;28;20293;-68
2023/05/16 16:19:38;;;;;;;2.20;1.73;;;;;;;17.22;45.27;97881.75;8478340;27;20246;-68
2023/05/16 16:23:44;;;;;;;1.87;1.63;;;;;;;16.92;45.10;97885.59;8478873;28;20227;-69
2023/05/16 16:27:47;;;;;;;2.23;1.53;;;;;;;16.99;45.32;97891.25;8478634;28;20538;-68
2023/05/16 16:31:51;;;;;;;2.33;1.77;;;;;;;17.10;45.02;97890.50;8479052;28;20232;-69
2023/05/16 16:35:55;;;;;;;4.77;1.50;;;;;;;16.80;45.02;97902.16;8478709;28;20234;-69
2023/05/16 16:39:58;;;;;;;1.73;1.50;;;;;;;16.86;44.99;97901.75;8478781;27;20235;-68
2023/05/16 16:44:01;;;;;;;3.20;1.47;;;;;;;17.00;45.06;97899.00;8478970;28;20227;-67
2023/05/16 16:48:07;;;;;;;4.30;2.13;;;;;;;16.96;44.82;97891.47;8478803;28;20226;-68
2023/05/16 16:52:10;;;;;;;4.87;2.30;;;;;;;16.91;45.14;97875.28;8478804;27;20232;-69
2023/05/16 16:56:13;;;;;;;3.87;2.00;;;;;;;17.02;45.59;97898.03;8481035;28;20252;-68
2023/05/16 17:00:17;;;;;;;3.23;2.03;;;;;;;16.94;45.55;97894.19;8485111;27;20344;-68
2023/05/16 17:04:21;;;;;;;2.97;2.00;;;;;;;16.99;45.81;97906.94;8474809;27;20239;-69
2023/05/16 17:08:24;;;;;;;4.10;1.60;;;;;;;16.82;45.79;97916.00;8484674;28;20230;-68
2023/05/16 17:12:27;;;;;;;5.10;1.97;;;;;;;16.92;46.04;97911.75;8481646;28;20226;-68
2023/05/16 17:16:30;;;;;;;3.60;1.83;;;;;;;16.79;45.87;97927.47;8482465;27;20241;-69
2023/05/16 17:20:35;;;;;;;1.70;1.50;;;;;;;16.94;46.14;97940.44;8483760;27;20237;-69
2023/05/16 17:24:38;;;;;;;2.73;1.50;;;;;;;16.93;46.01;97938.78;8483504;28;20249;-71
2023/05/16 17:28:41;;;;;;;2.57;1.60;;;;;;;16.90;46.41;97947.66;8481444;27;20226;-69
2023/05/16 17:32:44;;;;;;;3.40;1.80;;;;;;;16.74;46.09;97950.50;8481275;27;20225;-69
2023/05/16 17:36:49;;;;;;;1.90;1.60;;;;;;;16.80;46.01;97950.06;8481710;28;20226;-69
2023/05/16 17:40:52;;;;;;;4.37;1.70;;;;;;;16.90;45.43;97952.91;8484140;27;20229;-69
2023/05/16 17:44:55;;;;;;;3.10;1.70;;;;;;;16.82;45.45;97963.06;8485704;27;20273;-69
2023/05/16 17:48:58;;;;;;;2.23;1.40;;;;;;;16.87;45.96;97963.59;8481752;27;20250;-68
2023/05/16 17:53:03;;;;;;;10.40;3.17;;;;;;;16.99;49.06;97956.66;8479769;28;20253;-67
2023/05/16 17:57:07;;;;;;;3.27;1.70;;;;;;;16.88;45.61;97978.31;8481790;27;20219;-68
2023/05/16 18:01:11;;;;;;;2.40;1.40;;;;;;;16.95;45.44;97987.41;8481947;28;20517;-68
2023/05/16 18:05:15;;;;;;;2.53;1.60;;;;;;;16.89;45.32;97980.00;8481008;28;20613;-68
2023/05/16 18:09:20;;;;;;;4.27;1.73;;;;;;;16.90;45.39;97989.50;8446819;28;20227;-71
2023/05/16 18:13:24;;;;;;;3.17;1.70;;;;;;;16.70;45.00;97967.34;8447815;27;20248;-70
2023/05/16 18:17:27;;;;;;;3.50;1.73;;;;;;;16.80;45.81;97994.50;8447144;27;20298;-68
2023/05/16 18:21:30;;;;;;;3.80;1.80;;;;;;;16.72;45.31;97991.59;8446731;28;20516;-71
2023/05/16 18:25:34;;;;;;;3.30;1.60;;;;;;;16.74;45.15;97994.94;8447675;28;20298;-69
2023/05/16 18:29:37;;;;;;;4.63;1.60;;;;;;;16.58;44.95;97992.56;8447882;27;20230;-70
2023/05/16 18:33:40;;;;;;;2.57;1.50;;;;;;;16.70;44.56;97993.50;8448199;28;20529;-70
2023/05/16 18:37:43;;;;;;;5.63;1.70;;;;;;;16.63;44.33;97999.25;8447980;28;20242;-71
2023/05/16 18:41:48;;;;;;;3.63;1.90;;;;;;;16.48;43.50;97991.50;8448083;27;20233;-71
2023/05/16 18:45:50;;;;;;;4.23;1.77;;;;;;;16.64;44.19;97999.16;8447737;28;20230;-70
2023/05/16 18:49:53;;;;;;;13.27;4.43;;;;;;;17.42;62.73;97995.47;8447614;28;20562;-70
2023/05/16 18:53:56;;;;;;;7.67;3.00;;;;;;;17.56;56.73;97978.75;8447615;27;20223;-71
2023/05/16 18:58:01;;;;;;;5.33;2.00;;;;;;;17.87;51.56;97994.88;8447099;28;20234;-70
2023/05/16 19:02:04;;;;;;;3.90;1.40;;;;;;;17.06;44.48;98015.47;8446615;28;20282;-70
2023/05/16 19:06:07;;;;;;;3.53;1.60;;;;;;;16.80;43.08;98015.44;8446402;27;20228;-71
2023/05/16 19:10:10;;;;;;;4.00;1.33;;;;;;;16.55;43.49;98015.47;8446809;28;20223;-70
2023/05/16 19:14:14;;;;;;;5.27;1.90;;;;;;;16.54;43.48;98027.66;8445711;28;20232;-70
2023/05/16 19:18:18;;;;;;;4.67;1.67;;;;;;;16.19;43.10;98006.53;8445276;28;20300;-70
2023/05/16 19:22:21;;;;;;;5.87;1.50;;;;;;;16.25;42.58;98008.72;8472065;28;20230;-71
2023/05/16 19:26:24;;;;;;;4.43;1.30;;;;;;;16.14;42.06;98029.50;8479983;28;20242;-71
2023/05/16 19:30:30;;;;;;;5.87;1.73;;;;;;;16.05;40.99;98032.72;8479752;27;20228;-72
2023/05/16 19:34:33;;;;;;;4.43;1.40;;;;;;;16.00;40.74;98040.88;8479680;28;20228;-72
2023/05/16 19:38:37;;;;;;;3.43;1.40;;;;;;;15.82;39.92;98032.44;8480240;27;20229;-70
2023/05/16 19:42:41;;;;;;;3.10;1.50;;;;;;;15.55;39.41;98048.91;8478669;28;20231;-70
2023/05/16 19:46:46;;;;;;;5.70;1.27;;;;;;;15.45;38.57;98059.09;8479501;28;20253;-70
2023/05/16 19:50:49;;;;;;;3.43;1.07;;;;;;;15.49;38.72;98062.34;8479702;28;20222;-70
2023/05/16 19:54:52;;;;;;;4.37;1.30;;;;;;;15.60;38.27;98064.28;8479479;28;20219;-70
2023/05/16 19:58:55;;;;;;;3.23;1.37;;;;;;;15.64;38.25;98071.81;8479029;28;20253;-70
2023/05/16 20:02:59;;;;;;;4.40;1.53;;;;;;;15.56;37.53;98079.31;8479043;28;20235;-71
2023/05/16 20:07:02;;;;;;;7.43;1.77;;;;;;;15.32;37.81;98084.28;8479146;28;20222;-71
2023/05/16 20:11:05;;;;;;;4.03;1.30;;;;;;;15.27;37.84;98075.91;8479187;27;20294;-71
2023/05/16 20:15:09;;;;;;;5.37;1.60;;;;;;;15.30;37.44;98090.53;8479051;27;20219;-71
2023/05/16 20:19:17;;;;;;;2.87;1.27;;;;;;;15.17;37.90;98096.50;8478517;27;20311;-71
2023/05/16 20:23:20;;;;;;;3.50;1.30;;;;;;;15.23;37.68;98097.88;8478072;28;20294;-72